createdAt,value
2016-09-17T00:00:48.425Z,17.57
2016-09-17T00:01:48.423Z,17.54
2016-09-17T00:02:48.437Z,17.57
2016-09-17T00:03:48.439Z,17.6
2016-09-17T00:04:48.433Z,17.57
2016-09-17T00:05:48.426Z,17.6
2016-09-17T00:06:48.435Z,17.54
2016-09-17T00:07:48.431Z,17.52
2016-09-17T00:08:48.431Z,17.56
2016-09-17T00:09:48.430Z,17.56
2016-09-17T00:10:48.440Z,17.57
2016-09-17T00:11:48.436Z,17.57
2016-09-17T00:12:48.428Z,17.56
2016-09-17T00:13:48.443Z,17.59
2016-09-17T00:14:48.444Z,17.52
2016-09-17T00:15:48.437Z,17.51
2016-09-17T00:16:48.441Z,17.52
2016-09-17T00:17:48.451Z,17.49
2016-09-17T00:18:48.446Z,17.52
2016-09-17T00:19:48.440Z,17.41
2016-09-17T00:20:48.450Z,17.36
2016-09-17T00:21:48.442Z,17.38
2016-09-17T00:22:48.449Z,17.42
2016-09-17T00:23:48.449Z,17.33
2016-09-17T00:24:48.461Z,17.45
2016-09-17T00:25:48.450Z,17.48
2016-09-17T00:26:48.452Z,17.41
2016-09-17T00:27:48.452Z,17.38
2016-09-17T00:28:48.459Z,17.41
2016-09-17T00:29:48.706Z,17.45
2016-09-17T00:30:48.455Z,17.38
2016-09-17T00:31:48.461Z,17.39
2016-09-17T00:32:48.462Z,17.42
2016-09-17T00:33:48.469Z,17.46
2016-09-17T00:34:48.472Z,17.45
2016-09-17T00:35:48.470Z,17.39
2016-09-17T00:36:48.465Z,17.39
2016-09-17T00:37:48.472Z,17.45
2016-09-17T00:38:48.780Z,17.48
2016-09-17T00:39:48.465Z,17.39
2016-09-17T00:40:48.476Z,17.38
2016-09-17T00:41:48.783Z,17.42
2016-09-17T00:42:48.478Z,17.39
2016-09-17T00:43:48.483Z,17.39
2016-09-17T00:44:48.478Z,17.38
2016-09-17T00:45:48.494Z,17.36
2016-09-17T00:46:48.473Z,17.39
2016-09-17T00:47:48.477Z,17.41
2016-09-17T00:48:48.787Z,17.48
2016-09-17T00:49:48.483Z,17.41
2016-09-17T00:50:48.490Z,17.51
2016-09-17T00:51:48.483Z,17.42
2016-09-17T00:52:48.481Z,17.49
2016-09-17T00:53:48.493Z,17.38
2016-09-17T00:54:48.492Z,17.36
2016-09-17T00:55:48.491Z,17.38
2016-09-17T00:56:48.801Z,17.42
2016-09-17T00:57:48.491Z,17.41
2016-09-17T00:58:48.809Z,17.39
2016-09-17T00:59:48.501Z,17.39
2016-09-17T01:00:48.504Z,17.38
2016-09-17T01:01:48.513Z,17.36
2016-09-17T01:02:48.500Z,17.33
2016-09-17T01:03:48.513Z,17.41
2016-09-17T01:04:48.500Z,17.38
2016-09-17T01:05:48.508Z,17.34
2016-09-17T01:06:48.512Z,17.41
2016-09-17T01:07:48.511Z,17.41
2016-09-17T01:08:48.515Z,17.42
2016-09-17T01:09:48.512Z,17.38
2016-09-17T01:10:48.517Z,17.33
2016-09-17T01:11:48.517Z,17.29
2016-09-17T01:12:48.518Z,17.31
2016-09-17T01:13:48.516Z,17.3
2016-09-17T01:14:48.520Z,17.26
2016-09-17T01:15:48.546Z,17.29
2016-09-17T01:16:48.522Z,17.26
2016-09-17T01:17:48.531Z,17.22
2016-09-17T01:18:48.524Z,17.19
2016-09-17T01:19:48.846Z,17.23
2016-09-17T01:20:48.534Z,17.19
2016-09-17T01:21:48.529Z,17.23
2016-09-17T01:22:48.525Z,17.2
2016-09-17T01:23:48.526Z,17.16
2016-09-17T01:24:48.540Z,17.2
2016-09-17T01:25:48.526Z,17.16
2016-09-17T01:26:48.531Z,17.15
2016-09-17T01:27:48.533Z,17.09
2016-09-17T01:28:48.529Z,17.16
2016-09-17T01:29:48.540Z,17.09
2016-09-17T01:30:48.536Z,17.02
2016-09-17T01:31:48.537Z,16.97
2016-09-17T01:32:48.536Z,17.05
2016-09-17T01:33:48.553Z,17.01
2016-09-17T01:34:48.557Z,16.99
2016-09-17T01:35:48.539Z,16.99
2016-09-17T01:36:48.560Z,16.91
2016-09-17T01:37:48.541Z,16.91
2016-09-17T01:38:48.547Z,16.99
2016-09-17T01:39:48.551Z,16.94
2016-09-17T01:40:48.547Z,16.94
2016-09-17T01:41:48.547Z,16.99
2016-09-17T01:42:48.864Z,16.96
2016-09-17T01:43:48.550Z,16.99
2016-09-17T01:44:48.550Z,16.96
2016-09-17T01:45:48.553Z,16.94
2016-09-17T01:46:48.563Z,16.94
2016-09-17T01:47:48.553Z,16.97
2016-09-17T01:48:48.554Z,16.94
2016-09-17T01:49:48.559Z,16.91
2016-09-17T01:50:48.557Z,16.89
2016-09-17T01:51:48.559Z,16.87
2016-09-17T01:52:48.567Z,16.79
2016-09-17T01:53:48.555Z,16.79
2016-09-17T01:54:48.571Z,16.79
2016-09-17T01:55:48.575Z,16.79
2016-09-17T01:56:48.587Z,16.81
2016-09-17T01:57:48.567Z,16.83
2016-09-17T01:58:48.562Z,16.71
2016-09-17T01:59:48.572Z,16.69
2016-09-17T02:00:48.567Z,16.72
2016-09-17T02:01:48.580Z,16.66
2016-09-17T02:02:48.581Z,16.65
2016-09-17T02:03:48.581Z,16.64
2016-09-17T02:04:48.574Z,16.64
2016-09-17T02:05:48.588Z,16.61
2016-09-17T02:06:48.583Z,16.57
2016-09-17T02:07:48.592Z,16.61
2016-09-17T02:08:48.581Z,16.5
2016-09-17T02:09:48.586Z,16.56
2016-09-17T02:10:48.580Z,16.5
2016-09-17T02:11:48.589Z,16.43
2016-09-17T02:12:48.587Z,16.43
2016-09-17T02:13:48.582Z,16.43
2016-09-17T02:14:48.596Z,16.41
2016-09-17T02:15:48.581Z,16.46
2016-09-17T02:16:48.598Z,16.38
2016-09-17T02:17:48.588Z,16.32
2016-09-17T02:18:48.607Z,16.35
2016-09-17T02:19:48.584Z,16.28
2016-09-17T02:20:48.902Z,16.29
2016-09-17T02:21:48.899Z,16.24
2016-09-17T02:22:48.834Z,16.28
2016-09-17T02:23:48.612Z,16.24
2016-09-17T02:24:48.593Z,16.28
2016-09-17T02:25:48.594Z,16.2
2016-09-17T02:26:48.592Z,16.15
2016-09-17T02:27:48.605Z,16.15
2016-09-17T02:28:48.596Z,16.15
2016-09-17T02:29:48.615Z,16.09
2016-09-17T02:30:48.597Z,16.13
2016-09-17T02:31:48.606Z,16.1
2016-09-17T02:32:48.598Z,16.09
2016-09-17T02:33:48.915Z,16.04
2016-09-17T02:34:48.617Z,16.04
2016-09-17T02:35:48.600Z,16.04
2016-09-17T02:36:48.613Z,16.05
2016-09-17T02:37:48.618Z,16.08
2016-09-17T02:38:48.611Z,16.01
2016-09-17T02:39:48.609Z,16.05
2016-09-17T02:40:48.613Z,16.08
2016-09-17T02:41:48.603Z,16.08
2016-09-17T02:42:48.625Z,16.01
2016-09-17T02:43:48.605Z,16.08
2016-09-17T02:44:48.613Z,16.04
2016-09-17T02:45:48.612Z,16.09
2016-09-17T02:46:48.615Z,16.09
2016-09-17T02:47:48.605Z,16.02
2016-09-17T02:48:48.617Z,16.09
2016-09-17T02:49:48.633Z,16.16
2016-09-17T02:50:48.615Z,16.12
2016-09-17T02:51:48.629Z,16.04
2016-09-17T02:52:48.616Z,16.1
2016-09-17T02:53:48.616Z,16.16
2016-09-17T02:54:48.621Z,16.16
2016-09-17T02:55:48.620Z,16.13
2016-09-17T02:56:48.632Z,16.17
2016-09-17T02:57:48.621Z,16.28
2016-09-17T02:58:48.622Z,16.28
2016-09-17T02:59:48.614Z,16.32
2016-09-17T03:00:48.635Z,16.17
2016-09-17T03:01:48.623Z,16.2
2016-09-17T03:02:48.626Z,16.15
2016-09-17T03:03:48.633Z,16.12
2016-09-17T03:04:48.644Z,16.13
2016-09-17T03:05:48.635Z,16.15
2016-09-17T03:06:48.639Z,16.17
2016-09-17T03:07:48.639Z,16.17
2016-09-17T03:08:48.626Z,16.21
2016-09-17T03:09:48.685Z,16.15
2016-09-17T03:10:48.643Z,16.17
2016-09-17T03:11:48.627Z,16.12
2016-09-17T03:12:48.646Z,16.15
2016-09-17T03:13:48.645Z,16.15
2016-09-17T03:14:48.628Z,16.13
2016-09-17T03:15:48.653Z,16.17
2016-09-17T03:16:48.640Z,16.1
2016-09-17T03:17:48.645Z,16.2
2016-09-17T03:18:48.633Z,16.16
2016-09-17T03:19:48.889Z,16.15
2016-09-17T03:20:48.876Z,16.16
2016-09-17T03:21:48.647Z,16.13
2016-09-17T03:22:48.652Z,16.15
2016-09-17T03:23:48.651Z,16.15
2016-09-17T03:24:48.647Z,16.08
2016-09-17T03:25:48.656Z,16.16
2016-09-17T03:26:48.650Z,16.09
2016-09-17T03:27:48.657Z,16.1
2016-09-17T03:28:48.649Z,16.13
2016-09-17T03:29:48.654Z,16.04
2016-09-17T03:30:48.650Z,16.12
2016-09-17T03:31:48.650Z,16.05
2016-09-17T03:32:48.951Z,16.05
2016-09-17T03:33:48.655Z,16.04
2016-09-17T03:34:48.655Z,16.02
2016-09-17T03:35:48.659Z,16.01
2016-09-17T03:36:48.661Z,16.05
2016-09-17T03:37:48.657Z,16.05
2016-09-17T03:38:48.671Z,15.94
2016-09-17T03:39:48.659Z,15.95
2016-09-17T03:40:48.654Z,15.97
2016-09-17T03:41:48.660Z,15.98
2016-09-17T03:42:48.964Z,15.94
2016-09-17T03:43:48.660Z,16
2016-09-17T03:44:48.663Z,15.92
2016-09-17T03:45:48.662Z,16.01
2016-09-17T03:46:48.651Z,16.02
2016-09-17T03:47:48.659Z,16.01
2016-09-17T03:48:48.653Z,16.02
2016-09-17T03:49:48.647Z,16.09
2016-09-17T03:50:48.662Z,16.04
2016-09-17T03:51:48.662Z,16.1
2016-09-17T03:52:48.657Z,16.02
2016-09-17T03:53:48.657Z,16.01
2016-09-17T03:54:48.656Z,16.09
2016-09-17T03:55:48.666Z,16.09
2016-09-17T03:56:48.659Z,16.2
2016-09-17T03:57:48.659Z,16.13
2016-09-17T03:58:48.662Z,16.21
2016-09-17T03:59:48.727Z,16.28
2016-09-17T04:00:48.734Z,16.29
2016-09-17T04:01:48.664Z,16.29
2016-09-17T04:02:48.664Z,16.28
2016-09-17T04:03:48.666Z,16.15
2016-09-17T04:04:48.676Z,16.28
2016-09-17T04:05:48.663Z,16.17
2016-09-17T04:06:48.666Z,16.29
2016-09-17T04:07:48.660Z,16.31
2016-09-17T04:08:48.664Z,16.28
2016-09-17T04:09:48.666Z,16.23
2016-09-17T04:10:48.677Z,16.26
2016-09-17T04:11:48.663Z,16.24
2016-09-17T04:12:48.668Z,16.26
2016-09-17T04:13:48.665Z,16.31
2016-09-17T04:14:48.672Z,16.33
2016-09-17T04:15:48.671Z,16.21
2016-09-17T04:16:48.668Z,16.29
2016-09-17T04:17:48.670Z,16.31
2016-09-17T04:18:48.669Z,16.31
2016-09-17T04:19:48.674Z,16.31
2016-09-17T04:20:48.913Z,16.28
2016-09-17T04:21:48.673Z,16.28
2016-09-17T04:22:48.983Z,16.16
2016-09-17T04:23:48.673Z,16.33
2016-09-17T04:24:48.671Z,16.33
2016-09-17T04:25:48.696Z,16.28
2016-09-17T04:26:48.687Z,16.28
2016-09-17T04:27:49.000Z,16.23
2016-09-17T04:28:48.680Z,16.29
2016-09-17T04:29:48.691Z,16.26
2016-09-17T04:30:48.678Z,16.26
2016-09-17T04:31:48.922Z,16.29
2016-09-17T04:32:48.681Z,16.33
2016-09-17T04:33:48.685Z,16.32
2016-09-17T04:34:48.737Z,16.29
2016-09-17T04:35:48.752Z,16.28
2016-09-17T04:36:48.682Z,16.32
2016-09-17T04:37:48.688Z,16.33
2016-09-17T04:38:48.683Z,16.31
2016-09-17T04:39:48.696Z,16.32
2016-09-17T04:40:48.686Z,16.32
2016-09-17T04:41:48.686Z,16.35
2016-09-17T04:42:48.692Z,16.35
2016-09-17T04:43:48.687Z,16.32
2016-09-17T04:44:49.003Z,16.36
2016-09-17T04:45:48.692Z,16.39
2016-09-17T04:46:48.693Z,16.29
2016-09-17T04:47:48.694Z,16.31
2016-09-17T04:48:48.999Z,16.31
2016-09-17T04:49:48.701Z,16.28
2016-09-17T04:50:48.693Z,16.35
2016-09-17T04:51:48.699Z,16.31
2016-09-17T04:52:48.694Z,16.38
2016-09-17T04:53:48.699Z,16.39
2016-09-17T04:54:48.700Z,16.33
2016-09-17T04:55:48.700Z,16.42
2016-09-17T04:56:48.708Z,16.31
2016-09-17T04:57:48.699Z,16.38
2016-09-17T04:58:48.699Z,16.35
2016-09-17T04:59:48.702Z,16.35
2016-09-17T05:00:48.711Z,16.35
2016-09-17T05:01:48.699Z,16.33
2016-09-17T05:02:48.703Z,16.36
2016-09-17T05:03:48.704Z,16.33
2016-09-17T05:04:48.706Z,16.36
2016-09-17T05:05:48.704Z,16.38
2016-09-17T05:06:48.707Z,16.32
2016-09-17T05:07:48.703Z,16.36
2016-09-17T05:08:49.018Z,16.32
2016-09-17T05:09:48.777Z,16.31
2016-09-17T05:10:48.783Z,16.28
2016-09-17T05:11:48.711Z,16.32
2016-09-17T05:12:48.711Z,16.31
2016-09-17T05:13:48.710Z,16.23
2016-09-17T05:14:48.712Z,16.26
2016-09-17T05:15:48.709Z,16.24
2016-09-17T05:16:49.042Z,16.33
2016-09-17T05:17:48.716Z,16.26
2016-09-17T05:18:48.712Z,16.28
2016-09-17T05:19:48.714Z,16.31
2016-09-17T05:20:48.714Z,16.31
2016-09-17T05:21:49.045Z,16.15
2016-09-17T05:22:48.714Z,16.2
2016-09-17T05:23:48.717Z,16.05
2016-09-17T05:24:48.717Z,16.09
2016-09-17T05:25:49.033Z,16.04
2016-09-17T05:26:48.718Z,16.05
2016-09-17T05:27:48.720Z,16.05
2016-09-17T05:28:48.717Z,16.04
2016-09-17T05:29:48.714Z,15.98
2016-09-17T05:30:48.721Z,16.04
2016-09-17T05:31:48.728Z,16.16
2016-09-17T05:32:48.721Z,16.1
2016-09-17T05:33:48.718Z,16.16
2016-09-17T05:34:48.723Z,16.1
2016-09-17T05:35:48.719Z,16.29
2016-09-17T05:36:48.724Z,16.24
2016-09-17T05:37:48.722Z,16.23
2016-09-17T05:38:48.721Z,16.23
2016-09-17T05:39:48.728Z,16.31
2016-09-17T05:40:48.724Z,16.36
2016-09-17T05:41:48.741Z,16.32
2016-09-17T05:42:49.010Z,16.33
2016-09-17T05:43:48.729Z,16.38
2016-09-17T05:44:49.037Z,16.36
2016-09-17T05:45:48.728Z,16.32
2016-09-17T05:46:48.730Z,16.41
2016-09-17T05:47:48.975Z,16.46
2016-09-17T05:48:49.047Z,16.42
2016-09-17T05:49:48.747Z,16.43
2016-09-17T05:50:48.739Z,16.46
2016-09-17T05:51:49.047Z,16.5
2016-09-17T05:52:48.743Z,16.5
2016-09-17T05:53:48.734Z,16.51
2016-09-17T05:54:48.731Z,16.57
2016-09-17T05:55:48.735Z,16.58
2016-09-17T05:56:48.734Z,16.51
2016-09-17T05:57:48.739Z,16.65
2016-09-17T05:58:48.739Z,16.66
2016-09-17T05:59:48.748Z,16.66
2016-09-17T06:00:48.985Z,16.72
2016-09-17T06:01:48.741Z,16.68
2016-09-17T06:02:48.745Z,16.76
2016-09-17T06:03:48.746Z,16.84
2016-09-17T06:04:48.747Z,16.78
2016-09-17T06:05:48.750Z,16.78
2016-09-17T06:06:48.748Z,16.84
2016-09-17T06:07:48.752Z,16.74
2016-09-17T06:08:48.750Z,16.75
2016-09-17T06:09:48.750Z,16.79
2016-09-17T06:10:48.751Z,16.89
2016-09-17T06:11:48.752Z,16.83
2016-09-17T06:12:48.774Z,16.84
2016-09-17T06:13:48.752Z,17.01
2016-09-17T06:14:48.756Z,16.89
2016-09-17T06:15:48.755Z,17.02
2016-09-17T06:16:48.759Z,16.97
2016-09-17T06:17:48.757Z,17.05
2016-09-17T06:18:48.758Z,17.06
2016-09-17T06:19:48.760Z,17.02
2016-09-17T06:20:48.768Z,17.14
2016-09-17T06:21:48.762Z,17.12
2016-09-17T06:22:49.078Z,17.15
2016-09-17T06:23:48.776Z,17.16
2016-09-17T06:24:48.763Z,17.11
2016-09-17T06:25:48.767Z,17.12
2016-09-17T06:26:48.768Z,17.22
2016-09-17T06:27:48.772Z,17.2
2016-09-17T06:28:48.768Z,17.34
2016-09-17T06:29:48.770Z,17.31
2016-09-17T06:30:48.800Z,17.31
2016-09-17T06:31:48.773Z,17.36
2016-09-17T06:32:48.775Z,17.38
2016-09-17T06:33:48.778Z,17.29
2016-09-17T06:34:48.798Z,17.34
2016-09-17T06:35:48.805Z,17.39
2016-09-17T06:36:48.781Z,17.41
2016-09-17T06:37:48.780Z,17.44
2016-09-17T06:38:49.031Z,17.52
2016-09-17T06:39:48.801Z,17.57
2016-09-17T06:40:48.786Z,17.6
2016-09-17T06:41:48.797Z,17.64
2016-09-17T06:42:48.786Z,17.64
2016-09-17T06:43:48.797Z,17.79
2016-09-17T06:44:48.789Z,17.86
2016-09-17T06:45:48.800Z,17.87
2016-09-17T06:46:48.791Z,17.94
2016-09-17T06:47:48.814Z,18.05
2016-09-17T06:48:48.802Z,18.05
2016-09-17T06:49:48.801Z,18.08
2016-09-17T06:50:49.045Z,18.04
2016-09-17T06:51:48.805Z,18.1
2016-09-17T06:52:48.803Z,18.13
2016-09-17T06:53:48.803Z,18.07
2016-09-17T06:54:48.806Z,18.11
2016-09-17T06:55:48.826Z,18.22
2016-09-17T06:56:48.819Z,18.29
2016-09-17T06:57:49.155Z,18.29
2016-09-17T06:58:48.821Z,18.33
2016-09-17T06:59:48.820Z,18.38
2016-09-17T07:00:48.820Z,18.34
2016-09-17T07:01:48.819Z,18.34
2016-09-17T07:02:48.822Z,18.43
2016-09-17T07:03:48.831Z,18.38
2016-09-17T07:04:48.826Z,18.41
2016-09-17T07:05:48.833Z,18.43
2016-09-17T07:06:48.834Z,18.56
2016-09-17T07:07:49.156Z,18.71
2016-09-17T07:08:49.154Z,18.89
2016-09-17T07:09:48.833Z,19.09
2016-09-17T07:10:48.836Z,19.24
2016-09-17T07:11:48.838Z,19.48
2016-09-17T07:12:48.839Z,19.82
2016-09-17T07:13:48.845Z,20.04
2016-09-17T07:14:48.853Z,20.32
2016-09-17T07:15:48.844Z,20.74
2016-09-17T07:16:48.857Z,21.2
2016-09-17T07:17:48.854Z,21.57
2016-09-17T07:18:49.171Z,21.98
2016-09-17T07:19:48.862Z,22.3
2016-09-17T07:20:48.861Z,22.8
2016-09-17T07:21:48.865Z,23.05
2016-09-17T07:22:49.189Z,23.43
2016-09-17T07:23:48.870Z,23.61
2016-09-17T07:24:48.876Z,23.84
2016-09-17T07:25:48.892Z,24.03
2016-09-17T07:26:49.130Z,24.26
2016-09-17T07:27:48.894Z,24.63
2016-09-17T07:28:48.901Z,24.98
2016-09-17T07:29:48.904Z,25.51
2016-09-17T07:30:48.903Z,25.95
2016-09-17T07:31:48.906Z,26.34
2016-09-17T07:32:48.910Z,26.68
2016-09-17T07:33:49.227Z,26.99
2016-09-17T07:34:48.944Z,27.25
2016-09-17T07:35:48.926Z,27.21
2016-09-17T07:36:48.933Z,27.32
2016-09-17T07:37:48.940Z,27.03
2016-09-17T07:38:48.947Z,26.78
2016-09-17T07:39:48.946Z,26.65
2016-09-17T07:40:48.958Z,26.34
2016-09-17T07:41:48.957Z,26.18
2016-09-17T07:42:49.276Z,26.4
2016-09-17T07:43:48.974Z,26.68
2016-09-17T07:44:48.977Z,26.96
2016-09-17T07:45:48.981Z,27.44
2016-09-17T07:46:48.999Z,27.9
2016-09-17T07:47:49.022Z,28.26
2016-09-17T07:48:49.018Z,28.6
2016-09-17T07:49:49.011Z,28.41
2016-09-17T07:50:49.017Z,28.51
2016-09-17T07:51:49.037Z,28.35
2016-09-17T07:52:49.040Z,28.04
2016-09-17T07:53:49.036Z,27.59
2016-09-17T07:54:49.289Z,26.85
2016-09-17T07:55:49.053Z,26.38
2016-09-17T07:56:49.063Z,26.19
2016-09-17T07:57:49.064Z,25.99
2016-09-17T07:58:49.079Z,26.09
2016-09-17T07:59:49.079Z,26.21
2016-09-17T08:00:49.079Z,26.4
2016-09-17T08:01:49.097Z,26.29
2016-09-17T08:02:49.105Z,26.13
2016-09-17T08:03:49.107Z,26.06
2016-09-17T08:04:49.105Z,26.36
2016-09-17T08:05:49.112Z,26.07
2016-09-17T08:06:49.118Z,25.55
2016-09-17T08:07:49.124Z,24.84
2016-09-17T08:08:49.142Z,23.96
2016-09-17T08:09:49.140Z,23.47
2016-09-17T08:10:49.145Z,23.41
2016-09-17T08:11:49.156Z,22.99
2016-09-17T08:12:49.398Z,22.83
2016-09-17T08:13:49.159Z,22.72
2016-09-17T08:14:49.169Z,22.73
2016-09-17T08:15:49.168Z,22.63
2016-09-17T08:16:49.200Z,22.45
2016-09-17T08:17:49.188Z,22.29
2016-09-17T08:18:49.190Z,21.96
2016-09-17T08:19:49.194Z,21.62
2016-09-17T08:20:49.208Z,21.42
2016-09-17T08:21:49.205Z,21.25
2016-09-17T08:22:49.211Z,21.07
2016-09-17T08:23:49.215Z,20.85
2016-09-17T08:24:49.217Z,20.72
2016-09-17T08:25:49.221Z,20.58
2016-09-17T08:26:49.229Z,20.4
2016-09-17T08:27:49.233Z,20.32
2016-09-17T08:28:49.236Z,20.37
2016-09-17T08:29:49.238Z,20.31
2016-09-17T08:30:49.258Z,20.22
2016-09-17T08:31:49.258Z,20.13
2016-09-17T08:32:49.267Z,20.04
2016-09-17T08:33:49.258Z,20.03
2016-09-17T08:34:49.275Z,20.02
2016-09-17T08:35:49.264Z,20.02
2016-09-17T08:36:49.265Z,19.91
2016-09-17T08:37:49.277Z,19.95
2016-09-17T08:38:49.280Z,19.94
2016-09-17T08:39:49.285Z,19.99
2016-09-17T08:40:49.917Z,19.91
2016-09-17T08:41:49.282Z,19.89
2016-09-17T08:42:49.617Z,19.77
2016-09-17T08:43:49.290Z,19.79
2016-09-17T08:44:49.304Z,19.74
2016-09-17T08:45:49.296Z,19.74
2016-09-17T08:46:49.296Z,19.85
2016-09-17T08:47:49.295Z,19.82
2016-09-17T08:48:49.309Z,19.79
2016-09-17T08:49:49.312Z,19.95
2016-09-17T08:50:49.309Z,19.88
2016-09-17T08:51:49.313Z,20.06
2016-09-17T08:52:49.312Z,20.19
2016-09-17T08:53:49.313Z,20.22
2016-09-17T08:54:49.323Z,20.28
2016-09-17T08:55:49.321Z,20.41
2016-09-17T08:56:49.602Z,20.51
2016-09-17T08:57:49.334Z,20.52
2016-09-17T08:58:49.335Z,20.52
2016-09-17T08:59:49.331Z,20.72
2016-09-17T09:00:49.334Z,20.69
2016-09-17T09:01:49.333Z,20.87
2016-09-17T09:02:49.356Z,20.99
2016-09-17T09:03:49.345Z,21.21
2016-09-17T09:04:49.353Z,21.4
2016-09-17T09:05:49.395Z,21.36
2016-09-17T09:06:49.352Z,21.35
2016-09-17T09:07:49.355Z,21.43
2016-09-17T09:08:49.359Z,21.57
2016-09-17T09:09:49.360Z,21.61
2016-09-17T09:10:49.375Z,21.57
2016-09-17T09:11:49.371Z,21.5
2016-09-17T09:12:49.375Z,21.5
2016-09-17T09:13:49.382Z,21.3
2016-09-17T09:14:49.378Z,21.14
2016-09-17T09:15:49.380Z,21.12
2016-09-17T09:16:49.381Z,21.15
2016-09-17T09:17:49.387Z,21.21
2016-09-17T09:18:49.388Z,21.24
2016-09-17T09:19:49.398Z,21.39
2016-09-17T09:20:49.400Z,21.5
2016-09-17T09:21:49.407Z,21.64
2016-09-17T09:22:49.400Z,21.55
2016-09-17T09:23:49.403Z,21.72
2016-09-17T09:24:49.405Z,21.72
2016-09-17T09:25:49.409Z,21.61
2016-09-17T09:26:49.422Z,21.46
2016-09-17T09:27:49.420Z,21.55
2016-09-17T09:28:49.425Z,21.5
2016-09-17T09:29:49.423Z,21.45
2016-09-17T09:30:49.447Z,21.24
2016-09-17T09:31:49.434Z,21.27
2016-09-17T09:32:49.447Z,21.22
2016-09-17T09:33:49.447Z,21.05
2016-09-17T09:34:49.450Z,20.9
2016-09-17T09:35:49.458Z,20.82
2016-09-17T09:36:49.452Z,20.92
2016-09-17T09:37:49.451Z,21.05
2016-09-17T09:38:49.455Z,21.15
2016-09-17T09:39:49.457Z,21.21
2016-09-17T09:40:49.462Z,21.22
2016-09-17T09:41:49.467Z,21.14
2016-09-17T09:42:49.598Z,21.09
2016-09-17T09:43:49.472Z,21.09
2016-09-17T09:44:49.475Z,21.21
2016-09-17T09:45:49.480Z,21.24
2016-09-17T09:46:49.481Z,21.43
2016-09-17T09:47:49.483Z,21.37
2016-09-17T09:48:49.492Z,21.33
2016-09-17T09:49:49.491Z,21.42
2016-09-17T09:50:49.495Z,21.5
2016-09-17T09:51:49.523Z,21.36
2016-09-17T09:52:49.495Z,21.32
2016-09-17T09:53:49.778Z,21.17
2016-09-17T09:54:49.517Z,21.12
2016-09-17T09:55:49.526Z,21.07
2016-09-17T09:56:49.518Z,20.99
2016-09-17T09:57:49.518Z,21.03
2016-09-17T09:58:49.522Z,21
2016-09-17T09:59:49.537Z,20.95
2016-09-17T10:00:49.530Z,20.85
2016-09-17T10:01:49.523Z,20.8
2016-09-17T10:02:49.525Z,20.84
2016-09-17T10:03:49.532Z,20.96
2016-09-17T10:04:49.533Z,21.05
2016-09-17T10:05:49.533Z,21.2
2016-09-17T10:06:49.544Z,21.27
2016-09-17T10:07:49.545Z,21.29
2016-09-17T10:08:49.539Z,21.36
2016-09-17T10:09:49.550Z,21.37
2016-09-17T10:10:49.552Z,21.37
2016-09-17T10:11:49.547Z,21.37
2016-09-17T10:12:49.551Z,21.5
2016-09-17T10:13:49.883Z,21.61
2016-09-17T10:14:49.560Z,21.58
2016-09-17T10:15:49.574Z,21.58
2016-09-17T10:16:49.574Z,21.54
2016-09-17T10:17:49.589Z,21.42
2016-09-17T10:18:49.908Z,21.32
2016-09-17T10:19:49.585Z,21.27
2016-09-17T10:20:49.580Z,21.37
2016-09-17T10:21:49.585Z,21.29
2016-09-17T10:22:49.613Z,21.27
2016-09-17T10:23:49.588Z,21.27
2016-09-17T10:24:49.590Z,21.43
2016-09-17T10:25:49.593Z,21.35
2016-09-17T10:26:49.593Z,21.29
2016-09-17T10:27:49.609Z,21.29
2016-09-17T10:28:49.609Z,21.43
2016-09-17T10:29:49.612Z,21.35
2016-09-17T10:30:49.615Z,21.46
2016-09-17T10:31:49.615Z,21.4
2016-09-17T10:32:49.613Z,21.45
2016-09-17T10:33:49.611Z,21.61
2016-09-17T10:34:49.619Z,21.58
2016-09-17T10:35:49.618Z,21.66
2016-09-17T10:36:49.627Z,21.66
2016-09-17T10:37:49.627Z,21.66
2016-09-17T10:38:49.629Z,21.58
2016-09-17T10:39:49.633Z,21.61
2016-09-17T10:40:49.653Z,21.6
2016-09-17T10:41:49.653Z,21.69
2016-09-17T10:42:49.848Z,21.83
2016-09-17T10:43:49.647Z,21.92
2016-09-17T10:44:49.675Z,21.89
2016-09-17T10:45:49.652Z,21.88
2016-09-17T10:46:49.653Z,21.85
2016-09-17T10:47:49.659Z,21.79
2016-09-17T10:48:49.665Z,21.69
2016-09-17T10:49:49.683Z,21.77
2016-09-17T10:50:49.679Z,21.7
2016-09-17T10:51:49.682Z,21.99
2016-09-17T10:52:49.720Z,22.02
2016-09-17T10:53:49.681Z,22.14
2016-09-17T10:54:49.703Z,22.26
2016-09-17T10:55:49.686Z,22.26
2016-09-17T10:56:49.688Z,22.23
2016-09-17T10:57:49.687Z,22.25
2016-09-17T10:58:49.694Z,22.26
2016-09-17T10:59:49.710Z,22.26
2016-09-17T11:00:49.708Z,22.22
2016-09-17T11:01:49.707Z,22.11
2016-09-17T11:02:49.728Z,22.13
2016-09-17T11:03:49.716Z,22.02
2016-09-17T11:04:49.717Z,22.07
2016-09-17T11:05:49.736Z,21.98
2016-09-17T11:06:49.718Z,21.92
2016-09-17T11:07:49.726Z,21.88
2016-09-17T11:08:49.729Z,21.83
2016-09-17T11:09:49.732Z,21.79
2016-09-17T11:10:49.745Z,21.7
2016-09-17T11:11:50.049Z,21.62
2016-09-17T11:12:49.750Z,21.6
2016-09-17T11:13:49.752Z,21.55
2016-09-17T11:14:50.051Z,21.48
2016-09-17T11:15:50.005Z,21.48
2016-09-17T11:16:49.784Z,21.35
2016-09-17T11:17:49.763Z,21.33
2016-09-17T11:18:50.079Z,21.33
2016-09-17T11:19:49.768Z,21.22
2016-09-17T11:20:49.785Z,21.35
2016-09-17T11:21:49.775Z,21.42
2016-09-17T11:22:49.773Z,21.42
2016-09-17T11:23:49.849Z,21.62
2016-09-17T11:24:49.784Z,21.58
2016-09-17T11:25:50.098Z,21.73
2016-09-17T11:26:50.514Z,21.95
2016-09-17T11:27:49.788Z,21.99
2016-09-17T11:28:49.790Z,22.15
2016-09-17T11:29:49.790Z,22.17
2016-09-17T11:30:49.796Z,22.35
2016-09-17T11:31:50.454Z,22.36
2016-09-17T11:32:49.804Z,22.33
2016-09-17T11:33:49.806Z,22.38
2016-09-17T11:34:49.806Z,22.36
2016-09-17T11:35:49.823Z,22.36
2016-09-17T11:36:49.814Z,22.48
2016-09-17T11:37:49.830Z,22.53
2016-09-17T11:38:49.822Z,22.59
2016-09-17T11:39:49.834Z,22.66
2016-09-17T11:40:49.836Z,22.65
2016-09-17T11:41:49.841Z,22.54
2016-09-17T11:42:49.851Z,22.6
2016-09-17T11:43:49.849Z,22.6
2016-09-17T11:44:49.849Z,22.54
2016-09-17T11:45:49.850Z,22.62
2016-09-17T11:46:49.850Z,22.5
2016-09-17T11:47:49.855Z,22.59
2016-09-17T11:48:49.857Z,22.65
2016-09-17T11:49:49.863Z,22.88
2016-09-17T11:50:49.865Z,22.87
2016-09-17T11:51:49.868Z,23.06
2016-09-17T11:52:49.868Z,23.15
2016-09-17T11:53:49.876Z,23.18
2016-09-17T11:54:49.877Z,23.23
2016-09-17T11:55:49.882Z,23.32
2016-09-17T11:56:49.891Z,23.17
2016-09-17T11:57:49.898Z,23.18
2016-09-17T11:58:49.898Z,23.12
2016-09-17T11:59:49.895Z,22.99
2016-09-17T12:00:49.902Z,23.06
2016-09-17T12:01:49.926Z,23.08
2016-09-17T12:02:49.919Z,23.31
2016-09-17T12:03:49.922Z,23.34
2016-09-17T12:04:49.920Z,23.41
2016-09-17T12:05:49.920Z,23.44
2016-09-17T12:06:49.935Z,23.43
2016-09-17T12:07:49.924Z,23.62
2016-09-17T12:08:50.177Z,23.62
2016-09-17T12:09:49.935Z,23.63
2016-09-17T12:10:49.942Z,23.63
2016-09-17T12:11:49.941Z,23.65
2016-09-17T12:12:49.953Z,23.55
2016-09-17T12:13:49.952Z,23.54
2016-09-17T12:14:50.201Z,23.5
2016-09-17T12:15:49.952Z,23.46
2016-09-17T12:16:49.968Z,23.47
2016-09-17T12:17:49.967Z,23.36
2016-09-17T12:18:49.975Z,23.39
2016-09-17T12:19:49.975Z,23.44
2016-09-17T12:20:49.988Z,23.61
2016-09-17T12:21:49.992Z,23.5
2016-09-17T12:22:49.996Z,23.47
2016-09-17T12:23:49.989Z,23.54
2016-09-17T12:24:49.997Z,23.59
2016-09-17T12:25:50.000Z,23.55
2016-09-17T12:26:50.016Z,23.51
2016-09-17T12:27:50.020Z,23.4
2016-09-17T12:28:50.015Z,23.46
2016-09-17T12:29:50.016Z,23.41
2016-09-17T12:30:50.019Z,23.28
2016-09-17T12:31:50.023Z,23.2
2016-09-17T12:32:50.025Z,23.08
2016-09-17T12:33:50.042Z,22.93
2016-09-17T12:34:50.031Z,22.87
2016-09-17T12:35:50.037Z,22.83
2016-09-17T12:36:50.041Z,22.9
2016-09-17T12:37:50.045Z,22.8
2016-09-17T12:38:50.055Z,22.9
2016-09-17T12:39:50.056Z,22.94
2016-09-17T12:40:50.057Z,23
2016-09-17T12:41:50.077Z,23.1
2016-09-17T12:42:50.075Z,23.09
2016-09-17T12:43:50.075Z,23.18
2016-09-17T12:44:50.317Z,23.12
2016-09-17T12:45:50.087Z,23.17
2016-09-17T12:46:50.371Z,23.03
2016-09-17T12:47:50.088Z,23.13
2016-09-17T12:48:50.113Z,23.17
2016-09-17T12:49:50.128Z,23.24
2016-09-17T12:50:50.097Z,23.31
2016-09-17T12:51:50.098Z,23.18
2016-09-17T12:52:50.106Z,23.15
2016-09-17T12:53:50.106Z,23.15
2016-09-17T12:54:50.130Z,23.21